Time;durP1;ratioP1;P1;durP2;ratioP2;P2;SDS_P1;SDS_P2;PMS_P1;PMS_P2;Temp;Humidity;BMP_temperature;BMP_pressure;BME280_temperature;BME280_humidity;BME280_pressure;Samples;Min_cycle;Max_cycle;Signal;HPM_P1;HPM_P2
2021/06/17 00:01:40;;;;;;;4.70;4.28;;;;;;;24.82;42.83;101325.84;6222859;28;20233;-59
2021/06/17 00:05:00;;;;;;;5.28;4.28;;;;;;;24.63;43.12;101325.25;6224531;28;20236;-59
2021/06/17 00:08:21;;;;;;;4.55;4.18;;;;;;;24.50;43.62;101317.09;6226254;28;20536;-58
2021/06/17 00:11:42;;;;;;;5.07;4.60;;;;;;;24.81;43.22;101310.81;6221355;28;20228;-58
2021/06/17 00:15:07;;;;;;;7.15;4.68;;;;;;;24.52;42.97;101307.25;6229141;28;20240;-58
2021/06/17 00:18:31;;;;;;;4.75;4.35;;;;;;;24.65;43.18;101316.22;6229897;28;20232;-58
2021/06/17 00:21:53;;;;;;;4.35;3.97;;;;;;;24.88;43.73;101309.47;6220023;28;20236;-58
2021/06/17 00:25:15;;;;;;;6.03;4.30;;;;;;;24.68;43.02;101309.84;6233755;28;20619;-58
2021/06/17 00:28:36;;;;;;;3.70;3.40;;;;;;;24.10;43.80;101304.34;6221491;28;20598;-59
2021/06/17 00:31:57;;;;;;;4.70;4.20;;;;;;;24.68;42.78;101308.06;6224055;28;20267;-58
2021/06/17 00:35:19;;;;;;;4.47;3.95;;;;;;;23.84;44.55;101315.63;6225000;28;20220;-58
2021/06/17 00:38:40;;;;;;;4.78;4.25;;;;;;;24.36;43.01;101307.28;6223985;28;20236;-59
2021/06/17 00:42:02;;;;;;;5.47;4.13;;;;;;;24.41;43.55;101305.22;6223442;28;20248;-57
2021/06/17 00:45:25;;;;;;;5.30;4.82;;;;;;;24.22;43.35;101300.13;6226417;28;20237;-59
2021/06/17 00:48:46;;;;;;;4.50;4.07;;;;;;;24.52;42.81;101302.81;6223939;28;20240;-59
2021/06/17 00:52:08;;;;;;;3.92;3.53;;;;;;;24.00;44.19;101310.28;6226555;28;20229;-58
2021/06/17 00:55:29;;;;;;;3.95;3.65;;;;;;;24.33;43.71;101302.13;6228345;28;20225;-59
2021/06/17 00:58:51;;;;;;;4.72;3.63;;;;;;;23.87;44.60;101311.00;6223562;28;20260;-58
2021/06/17 01:02:13;;;;;;;3.65;3.35;;;;;;;24.20;43.76;101294.03;6223618;28;20233;-57
2021/06/17 01:05:34;;;;;;;7.75;3.58;;;;;;;24.35;43.28;101305.56;6222634;28;20224;-57
2021/06/17 01:09:02;;;;;;;3.78;3.42;;;;;;;24.24;42.83;101313.34;6219618;28;20224;-59
2021/06/17 01:12:33;;;;;;;8.75;4.00;;;;;;;24.31;43.04;101298.69;6215023;28;20598;-59
2021/06/17 01:16:05;;;;;;;4.13;3.20;;;;;;;24.01;43.61;101299.56;6229332;28;20228;-57
2021/06/17 01:19:35;;;;;;;6.03;3.85;;;;;;;24.34;42.37;101294.06;6222178;28;20221;-59
2021/06/17 01:23:07;;;;;;;5.30;3.58;;;;;;;23.95;43.29;101292.78;6230978;28;20232;-59
2021/06/17 01:26:49;;;;;;;4.30;2.85;;;;;;;24.21;42.93;101285.06;6224653;28;20228;-59
2021/06/17 01:30:15;;;;;;;3.55;3.28;;;;;;;23.75;43.02;101285.94;6231056;28;20220;-59
2021/06/17 01:33:39;;;;;;;4.18;3.17;;;;;;;23.76;43.05;101284.13;6212413;28;20221;-58
2021/06/17 01:37:06;;;;;;;3.40;3.10;;;;;;;23.85;42.84;101285.44;6227108;28;20228;-57
2021/06/17 01:40:28;;;;;;;5.07;3.50;;;;;;;24.07;43.10;101275.25;6212793;28;20614;-58
2021/06/17 01:43:50;;;;;;;3.60;3.33;;;;;;;24.10;43.00;101269.75;6223152;28;20311;-59
2021/06/17 01:47:15;;;;;;;3.22;3.03;;;;;;;24.11;42.76;101273.28;6218700;28;20236;-59
2021/06/17 01:50:38;;;;;;;3.25;3.05;;;;;;;24.25;42.00;101273.31;6226960;28;20240;-59
2021/06/17 01:53:59;;;;;;;4.47;3.63;;;;;;;23.84;42.86;101278.41;6220470;28;20324;-59
2021/06/17 01:57:23;;;;;;;4.13;3.42;;;;;;;24.18;42.26;101270.16;6222161;28;20743;-57
2021/06/17 02:00:47;;;;;;;4.32;3.03;;;;;;;24.23;42.22;101264.56;6223916;28;20240;-60
2021/06/17 02:04:10;;;;;;;4.00;3.58;;;;;;;24.19;42.68;101268.34;6227885;28;20526;-57
2021/06/17 02:07:31;;;;;;;3.55;3.25;;;;;;;24.10;42.46;101269.75;6227600;28;20233;-58
2021/06/17 02:10:53;;;;;;;6.80;3.53;;;;;;;23.72;43.34;101267.47;6231272;28;20254;-58
2021/06/17 02:14:15;;;;;;;4.60;3.10;;;;;;;24.01;42.96;101267.63;6236552;28;20225;-58
2021/06/17 02:17:37;;;;;;;4.70;3.80;;;;;;;24.18;42.31;101271.97;6226277;28;20228;-61
2021/06/17 02:20:59;;;;;;;4.57;3.38;;;;;;;24.20;42.88;101277.22;6230222;28;20685;-59
2021/06/17 02:24:24;;;;;;;3.95;3.30;;;;;;;24.07;43.00;101275.25;6225623;28;20236;-59
2021/06/17 02:27:48;;;;;;;6.65;3.75;;;;;;;24.13;42.66;101268.72;6232995;28;20598;-59
2021/06/17 02:31:13;;;;;;;3.75;2.78;;;;;;;24.01;42.99;101274.78;6226588;28;20253;-59
2021/06/17 02:34:35;;;;;;;4.07;3.70;;;;;;;23.95;43.19;101266.19;6229511;28;20232;-58
2021/06/17 02:38:00;;;;;;;4.25;3.47;;;;;;;24.15;42.24;101267.66;6232358;28;20232;-59
2021/06/17 02:41:23;;;;;;;3.50;3.20;;;;;;;23.99;42.68;101261.56;6225475;28;20229;-58
2021/06/17 02:44:45;;;;;;;4.15;3.33;;;;;;;23.80;43.42;101255.59;6225010;28;20237;-58
2021/06/17 02:48:08;;;;;;;5.22;4.20;;;;;;;23.83;42.73;101250.09;6220579;28;20221;-57
2021/06/17 02:51:29;;;;;;;5.13;3.08;;;;;;;23.73;43.10;101253.25;6233683;28;20252;-57
2021/06/17 02:54:51;;;;;;;4.88;3.45;;;;;;;23.83;43.12;101247.44;6229932;28;20232;-58
2021/06/17 02:58:30;;;;;;;5.75;4.00;;;;;;;23.94;43.18;101242.34;6230404;28;20506;-58
2021/06/17 03:01:59;;;;;;;15.70;14.40;;;;;;;23.88;42.83;101246.22;6230127;28;20224;-59
2021/06/17 03:05:23;;;;;;;10.10;9.35;;;;;;;23.83;43.42;101250.09;6229567;28;20240;-59
2021/06/17 03:08:50;;;;;;;12.43;7.47;;;;;;;23.85;43.05;101243.75;6223834;28;20233;-59
2021/06/17 03:12:14;;;;;;;5.18;4.40;;;;;;;23.91;42.94;101248.69;6223152;28;20613;-58
2021/06/17 03:15:38;;;;;;;6.50;5.30;;;;;;;23.78;43.33;101253.88;6221293;28;20224;-59
2021/06/17 03:19:01;;;;;;;5.40;4.50;;;;;;;23.67;43.28;101248.31;6222414;28;20535;-58
2021/06/17 03:22:23;;;;;;;6.15;5.25;;;;;;;23.66;43.46;101249.22;6231067;28;20232;-59
2021/06/17 03:25:49;;;;;;;3.72;3.28;;;;;;;23.58;43.19;101251.47;6237351;28;20325;-58
2021/06/17 03:29:13;;;;;;;3.72;3.38;;;;;;;23.40;44.17;101245.41;6233532;28;20228;-57
2021/06/17 03:32:36;;;;;;;3.78;3.47;;;;;;;23.62;43.40;101247.69;6225184;28;20229;-57
2021/06/17 03:35:58;;;;;;;4.85;4.05;;;;;;;23.76;43.12;101260.19;6227878;28;20248;-59
2021/06/17 03:39:20;;;;;;;4.78;3.58;;;;;;;23.57;43.62;101263.03;6219582;28;20240;-59
2021/06/17 03:42:42;;;;;;;3.95;3.45;;;;;;;23.16;44.41;101263.56;6195817;28;20244;-59
2021/06/17 03:46:06;;;;;;;6.75;3.97;;;;;;;23.62;43.34;101258.31;6223993;28;20244;-59
2021/06/17 03:49:28;;;;;;;5.80;4.82;;;;;;;23.48;43.72;101256.44;6224253;28;20274;-59
2021/06/17 03:52:51;;;;;;;4.80;4.35;;;;;;;23.58;43.33;101254.13;6224138;28;20252;-56
2021/06/17 03:56:13;;;;;;;6.22;4.97;;;;;;;23.81;43.92;101260.81;6228605;28;20502;-56
2021/06/17 03:59:37;;;;;;;6.10;5.30;;;;;;;23.80;42.83;101260.91;6228849;28;20273;-58
2021/06/17 04:03:05;;;;;;;11.55;10.52;;;;;;;23.95;42.81;101241.41;6231952;28;20232;-60
2021/06/17 04:06:28;;;;;;;5.82;4.45;;;;;;;24.14;42.77;101249.16;6241294;28;20262;-58
2021/06/17 04:09:51;;;;;;;8.40;4.15;;;;;;;24.07;42.37;101238.00;6224510;28;20645;-59
2021/06/17 04:13:14;;;;;;;15.95;14.52;;;;;;;23.97;42.55;101242.16;6230530;28;20340;-57
2021/06/17 04:16:36;;;;;;;4.97;4.57;;;;;;;23.84;42.74;101241.16;6216175;28;20221;-57
2021/06/17 04:20:00;;;;;;;4.00;3.70;;;;;;;23.73;42.87;101242.63;6223619;28;20220;-58
2021/06/17 04:23:23;;;;;;;5.05;4.55;;;;;;;23.91;43.06;101234.56;6230957;28;20229;-58
2021/06/17 04:26:44;;;;;;;5.07;4.63;;;;;;;23.70;42.92;101236.63;6224600;28;20232;-58
2021/06/17 04:30:07;;;;;;;7.07;4.53;;;;;;;23.51;43.19;101239.47;6229637;28;20536;-58
2021/06/17 04:33:29;;;;;;;8.60;5.25;;;;;;;23.67;43.04;101242.97;6220326;28;20228;-58
2021/06/17 04:36:52;;;;;;;4.57;3.95;;;;;;;23.24;43.49;101248.03;6230512;28;20615;-59
2021/06/17 04:40:15;;;;;;;8.40;3.83;;;;;;;23.87;42.56;101239.19;6210484;28;20598;-59
2021/06/17 04:43:36;;;;;;;4.82;3.92;;;;;;;24.10;41.90;101240.50;6229353;28;20232;-59
2021/06/17 04:46:59;;;;;;;4.25;3.85;;;;;;;23.78;43.42;101237.91;6225194;28;20228;-58
2021/06/17 04:50:23;;;;;;;5.07;3.42;;;;;;;23.63;42.67;101238.75;6224014;28;20244;-57
2021/06/17 04:53:46;;;;;;;4.30;3.90;;;;;;;23.88;42.95;101224.94;6220878;28;20224;-58
2021/06/17 04:57:07;;;;;;;5.55;3.65;;;;;;;24.23;42.28;101226.47;6224210;28;20264;-57
2021/06/17 05:00:28;;;;;;;3.97;3.63;;;;;;;23.83;42.55;101221.69;6211146;28;20237;-58
2021/06/17 05:03:50;;;;;;;6.07;3.45;;;;;;;23.54;44.22;101231.34;6225941;28;20240;-58
2021/06/17 05:07:25;;;;;;;3.85;3.55;;;;;;;23.45;44.06;101226.53;6223581;28;20237;-58
2021/06/17 05:10:50;;;;;;;3.55;3.33;;;;;;;23.68;43.86;101235.84;6222172;28;20224;-58
2021/06/17 05:14:12;;;;;;;4.60;3.83;;;;;;;23.67;43.24;101242.97;6222629;28;20232;-58
2021/06/17 05:17:33;;;;;;;4.18;3.75;;;;;;;23.83;43.11;101236.81;6228573;28;20228;-59
2021/06/17 05:20:56;;;;;;;4.07;3.30;;;;;;;24.01;43.17;101243.69;6229559;28;20225;-59
2021/06/17 05:24:17;;;;;;;3.97;3.63;;;;;;;24.49;42.19;101243.53;6226251;28;20539;-59
2021/06/17 05:27:40;;;;;;;5.82;3.92;;;;;;;24.00;43.56;101241.13;6214838;28;20225;-58
2021/06/17 05:31:03;;;;;;;6.50;4.20;;;;;;;24.31;42.60;101240.16;6241707;28;20265;-58
2021/06/17 05:34:24;;;;;;;4.78;3.80;;;;;;;24.69;42.22;101245.00;6223922;28;20247;-57
2021/06/17 05:37:45;;;;;;;5.07;4.68;;;;;;;24.52;42.54;101246.00;6219879;28;21046;-59
2021/06/17 05:41:06;;;;;;;4.35;3.88;;;;;;;24.45;42.57;101242.84;6223239;28;20510;-58
2021/06/17 05:44:28;;;;;;;5.40;4.38;;;;;;;24.44;42.46;101241.13;6211830;28;20232;-58
2021/06/17 05:47:49;;;;;;;5.07;4.22;;;;;;;23.91;43.98;101242.53;6224131;28;20228;-60
2021/06/17 05:51:10;;;;;;;5.38;4.78;;;;;;;23.58;44.62;101243.50;6223898;28;20231;-60
2021/06/17 05:54:31;;;;;;;10.35;5.53;;;;;;;23.70;44.68;101248.09;6224261;28;20651;-61
2021/06/17 05:57:52;;;;;;;5.60;5.15;;;;;;;23.65;44.77;101246.66;6227338;28;20323;-60
2021/06/17 06:01:14;;;;;;;6.18;5.57;;;;;;;23.87;44.97;101251.63;6221514;28;20240;-60
2021/06/17 06:04:36;;;;;;;6.93;4.85;;;;;;;24.51;44.26;101255.81;6232789;28;20232;-59
2021/06/17 06:07:58;;;;;;;5.85;4.65;;;;;;;24.47;43.93;101256.06;6223115;28;20247;-59
2021/06/17 06:11:19;;;;;;;8.48;4.85;;;;;;;24.18;44.93;101259.53;6224042;28;20693;-58
2021/06/17 06:14:41;;;;;;;5.95;4.45;;;;;;;24.76;43.63;101264.97;6225234;28;20259;-59
2021/06/17 06:18:09;;;;;;;7.30;5.30;;;;;;;24.75;44.33;101266.75;6221129;28;20224;-59
2021/06/17 06:21:30;;;;;;;9.18;4.90;;;;;;;25.02;43.89;101266.00;6219604;28;20232;-60
2021/06/17 06:24:51;;;;;;;5.53;4.28;;;;;;;25.56;42.67;101256.41;6224124;28;20327;-60
2021/06/17 06:28:12;;;;;;;5.47;4.95;;;;;;;24.89;43.56;101265.03;6223852;28;20221;-60
2021/06/17 06:31:33;;;;;;;5.40;4.90;;;;;;;25.11;43.80;101270.75;6222366;28;20229;-58
2021/06/17 06:34:55;;;;;;;4.88;4.47;;;;;;;25.29;43.59;101267.91;6221316;28;20236;-60
2021/06/17 06:38:16;;;;;;;5.53;4.63;;;;;;;25.62;43.05;101270.19;6224165;28;20236;-59
2021/06/17 06:41:39;;;;;;;7.47;5.03;;;;;;;26.33;41.33;101263.69;6221464;28;20742;-60
2021/06/17 06:45:00;;;;;;;6.75;5.18;;;;;;;25.22;43.97;101278.13;6231537;28;20243;-60
2021/06/17 06:48:21;;;;;;;6.15;5.53;;;;;;;25.25;43.73;101285.06;6222065;28;20233;-59
2021/06/17 06:51:44;;;;;;;7.88;5.10;;;;;;;26.11;42.06;101285.66;6221079;28;20520;-60
2021/06/17 06:55:06;;;;;;;8.65;6.00;;;;;;;25.67;42.98;101283.25;6224336;28;20740;-60
2021/06/17 06:58:26;;;;;;;7.18;5.85;;;;;;;26.13;42.27;101274.88;6223879;28;20232;-59
2021/06/17 07:01:47;;;;;;;5.80;5.25;;;;;;;25.84;42.66;101283.00;6224837;28;20232;-59
2021/06/17 07:05:09;;;;;;;5.07;4.68;;;;;;;25.96;43.43;101281.34;6223179;28;20225;-59
2021/06/17 07:08:31;;;;;;;8.80;6.28;;;;;;;25.89;43.57;101288.00;6228641;28;20236;-58
2021/06/17 07:11:52;;;;;;;6.03;5.30;;;;;;;25.81;43.82;101285.84;6232528;28;20225;-60
2021/06/17 07:15:14;;;;;;;6.32;5.20;;;;;;;26.26;42.58;101294.44;6227222;28;20232;-60
2021/06/17 07:18:35;;;;;;;9.30;6.22;;;;;;;26.03;43.30;101287.97;6223322;28;20259;-60
2021/06/17 07:21:56;;;;;;;7.80;5.70;;;;;;;26.32;42.60;101282.47;6227336;28;20244;-59
2021/06/17 07:25:18;;;;;;;8.27;6.60;;;;;;;26.37;42.87;101285.69;6224174;28;20232;-58
2021/06/17 07:28:39;;;;;;;5.53;4.90;;;;;;;26.72;41.95;101285.13;6231219;28;20228;-60
2021/06/17 07:32:01;;;;;;;7.63;5.90;;;;;;;26.27;43.29;101287.31;6222729;28;20220;-59
2021/06/17 07:35:23;;;;;;;6.72;5.60;;;;;;;26.44;43.07;101284.31;6223242;28;20544;-60
2021/06/17 07:38:44;;;;;;;6.70;6.10;;;;;;;26.90;41.91;101278.47;6229724;28;20240;-58
2021/06/17 07:42:09;;;;;;;6.18;5.25;;;;;;;27.64;40.63;101288.38;6231418;28;20237;-59
2021/06/17 07:45:31;;;;;;;6.45;4.88;;;;;;;27.91;40.43;101288.16;6230250;28;20240;-59
2021/06/17 07:48:53;;;;;;;7.30;6.18;;;;;;;27.33;41.48;101290.59;6229650;28;20239;-60
2021/06/17 07:52:14;;;;;;;9.40;6.82;;;;;;;27.28;41.59;101287.44;6224333;28;20228;-60
2021/06/17 07:55:36;;;;;;;7.00;6.40;;;;;;;27.43;41.58;101280.09;6223761;28;20232;-60
2021/06/17 07:58:59;;;;;;;7.68;6.95;;;;;;;27.10;42.05;101298.44;6220619;28;20323;-60
2021/06/17 08:02:20;;;;;;;8.40;6.82;;;;;;;27.50;41.03;101297.41;6222281;28;20229;-60
2021/06/17 08:05:41;;;;;;;10.48;6.70;;;;;;;27.97;40.42;101290.38;6223369;28;20241;-57
2021/06/17 08:09:03;;;;;;;7.95;7.05;;;;;;;27.50;41.88;101292.91;6225905;28;20228;-58
2021/06/17 08:12:26;;;;;;;5.78;5.28;;;;;;;27.68;41.44;101289.84;6203032;28;20316;-58
2021/06/17 08:15:49;;;;;;;8.80;6.13;;;;;;;27.58;42.42;101300.38;6226878;28;20232;-51
2021/06/17 08:19:10;;;;;;;10.30;5.72;;;;;;;27.65;41.70;101290.94;6223869;28;20268;-56
2021/06/17 08:22:30;;;;;;;8.93;7.28;;;;;;;27.80;41.33;101291.63;6216516;28;20250;-53
2021/06/17 08:25:51;;;;;;;8.15;7.03;;;;;;;27.81;41.35;101287.13;6223120;28;20232;-53
2021/06/17 08:29:12;;;;;;;8.68;7.80;;;;;;;27.96;41.12;101283.31;6220690;28;20224;-53
2021/06/17 08:32:35;;;;;;;7.78;7.05;;;;;;;28.31;40.83;101278.94;6220966;28;20220;-53
2021/06/17 08:35:56;;;;;;;11.07;6.93;;;;;;;28.71;40.15;101271.34;6228135;28;20249;-56
2021/06/17 08:39:18;;;;;;;6.72;6.05;;;;;;;28.99;39.63;101269.19;6225508;28;20228;-58
2021/06/17 08:42:39;;;;;;;7.20;6.60;;;;;;;28.63;40.58;101268.44;6210732;28;20251;-54
2021/06/17 08:46:00;;;;;;;7.35;6.65;;;;;;;29.22;39.87;101264.69;6211820;28;20320;-54
2021/06/17 08:49:24;;;;;;;7.38;6.80;;;;;;;28.77;40.34;101262.84;6228743;28;20225;-51
2021/06/17 08:52:46;;;;;;;6.45;5.88;;;;;;;28.88;39.88;101263.81;6229043;28;20240;-50
2021/06/17 08:56:07;;;;;;;10.93;7.40;;;;;;;28.95;39.97;101259.69;6220722;28;20312;-53
2021/06/17 08:59:34;;;;;;;7.63;6.50;;;;;;;28.60;40.96;101264.16;6222611;28;20261;-57
2021/06/17 09:03:01;;;;;;;7.45;6.85;;;;;;;29.53;39.33;101256.81;6222584;28;20806;-47
2021/06/17 09:06:24;;;;;;;8.07;6.70;;;;;;;29.30;39.51;101250.66;6228888;28;20236;-54
2021/06/17 09:09:46;;;;;;;9.02;8.15;;;;;;;29.12;40.20;101247.56;6219907;28;20232;-54
2021/06/17 09:13:10;;;;;;;7.53;6.80;;;;;;;29.28;40.02;101247.25;6227982;28;20598;-53
2021/06/17 09:16:33;;;;;;;9.55;6.95;;;;;;;29.19;40.13;101232.75;6224418;28;20577;-53
2021/06/17 09:19:54;;;;;;;7.38;6.45;;;;;;;29.95;38.77;101238.09;6230663;28;20228;-52
2021/06/17 09:23:35;;;;;;;8.15;7.35;;;;;;;29.64;39.36;101233.47;6229562;28;20236;-53
2021/06/17 09:27:19;;;;;;;7.55;6.70;;;;;;;30.27;38.83;101230.00;6224666;28;20263;-54
2021/06/17 09:30:40;;;;;;;13.13;7.68;;;;;;;29.98;38.60;101225.28;6218662;28;20249;-58
2021/06/17 09:34:03;;;;;;;7.75;7.15;;;;;;;29.95;38.74;101217.50;6218076;28;20233;-57
2021/06/17 09:37:32;;;;;;;9.93;7.43;;;;;;;29.67;39.39;101215.41;6236560;28;20240;-52
2021/06/17 09:40:56;;;;;;;7.15;6.30;;;;;;;30.27;38.47;101216.56;6227741;28;20228;-53
2021/06/17 09:44:30;;;;;;;8.27;7.03;;;;;;;30.01;38.79;101205.34;6221112;28;20248;-56
2021/06/17 09:47:51;;;;;;;7.35;6.75;;;;;;;30.08;38.65;101205.72;6219399;28;20508;-56
2021/06/17 09:51:24;;;;;;;8.10;7.45;;;;;;;30.14;38.92;101197.97;6223843;28;20257;-57
2021/06/17 09:54:46;;;;;;;8.07;7.47;;;;;;;30.31;39.52;101209.09;6222364;28;20700;-55
2021/06/17 09:58:11;;;;;;;7.00;6.40;;;;;;;30.59;38.31;101195.00;6223036;28;20244;-52
2021/06/17 10:01:37;;;;;;;7.13;6.63;;;;;;;30.59;38.29;101202.19;6222014;28;20224;-57
2021/06/17 10:05:11;;;;;;;7.45;6.75;;;;;;;30.75;38.17;101193.63;6221093;28;20568;-57
2021/06/17 10:08:32;;;;;;;9.05;7.65;;;;;;;30.93;37.75;101199.22;6215398;28;20314;-54
2021/06/17 10:11:53;;;;;;;7.00;6.40;;;;;;;31.15;36.86;101195.44;6228638;28;20260;-56
2021/06/17 10:15:16;;;;;;;8.70;7.80;;;;;;;30.89;37.31;101200.47;6218360;28;20224;-54
2021/06/17 10:18:40;;;;;;;8.43;7.55;;;;;;;31.26;37.14;101192.63;6218505;28;20319;-52
2021/06/17 10:22:02;;;;;;;7.10;6.53;;;;;;;31.19;35.80;101202.25;6226136;28;20777;-52
2021/06/17 10:25:25;;;;;;;8.15;7.15;;;;;;;30.68;36.52;101209.44;6219699;28;20237;-54
2021/06/17 10:28:49;;;;;;;8.85;7.05;;;;;;;31.15;36.71;101201.66;6220118;28;20237;-53
2021/06/17 10:32:16;;;;;;;7.95;7.38;;;;;;;30.97;36.37;101200.66;6225979;28;20639;-52
2021/06/17 10:35:37;;;;;;;8.90;6.63;;;;;;;31.43;35.56;101201.00;6228159;28;20241;-52
2021/06/17 10:39:19;;;;;;;11.13;7.88;;;;;;;31.54;35.39;101196.38;6225015;28;20886;-55
2021/06/17 10:42:41;;;;;;;8.48;7.80;;;;;;;31.33;35.70;101190.22;6200301;28;20319;-56
2021/06/17 10:46:02;;;;;;;8.13;7.30;;;;;;;31.27;36.65;101188.09;6215891;28;20524;-57
2021/06/17 10:49:58;;;;;;;10.65;7.00;;;;;;;31.37;36.07;101186.28;6222560;28;20244;-54
2021/06/17 10:53:44;;;;;;;7.10;6.47;;;;;;;31.97;35.17;101184.28;6228036;28;20235;-52
2021/06/17 10:57:05;;;;;;;7.13;6.53;;;;;;;32.11;33.26;101171.41;6221318;28;20228;-55
2021/06/17 11:00:47;;;;;;;7.18;6.45;;;;;;;32.38;33.64;101173.28;6214624;28;20232;-51
2021/06/17 11:04:10;;;;;;;7.75;7.03;;;;;;;32.26;33.52;101163.66;6217098;28;20232;-51
2021/06/17 11:07:32;;;;;;;7.50;6.93;;;;;;;32.86;32.12;101168.66;6223585;28;20231;-53
2021/06/17 11:10:58;;;;;;;7.22;6.53;;;;;;;32.79;33.11;101168.44;6217293;28;20231;-54
2021/06/17 11:14:21;;;;;;;7.47;6.88;;;;;;;31.90;33.96;101164.31;6216649;28;20610;-57
2021/06/17 11:17:45;;;;;;;7.72;7.22;;;;;;;32.53;33.47;101177.19;6226443;28;20256;-58
2021/06/17 11:21:06;;;;;;;6.85;6.25;;;;;;;33.01;33.18;101172.53;6220649;28;20236;-52
2021/06/17 11:24:33;;;;;;;6.50;5.75;;;;;;;33.39;31.25;101164.38;6226035;28;20229;-55
2021/06/17 11:28:01;;;;;;;7.65;5.97;;;;;;;33.04;32.15;101161.47;6213620;28;20324;-52
2021/06/17 11:31:36;;;;;;;7.50;6.88;;;;;;;33.35;31.01;101150.34;6227655;28;20233;-54
2021/06/17 11:34:57;;;;;;;6.45;5.95;;;;;;;32.84;31.90;101158.06;6216691;28;20781;-49
2021/06/17 11:38:22;;;;;;;7.18;6.45;;;;;;;32.87;31.54;101151.50;6230280;28;20721;-55
2021/06/17 11:41:43;;;;;;;6.88;6.38;;;;;;;33.58;31.27;101148.00;6227397;28;20543;-54
2021/06/17 11:45:11;;;;;;;6.97;6.35;;;;;;;33.31;31.40;101132.75;6233178;28;20236;-50
2021/06/17 11:48:32;;;;;;;6.65;5.95;;;;;;;33.62;30.07;101145.81;6225688;28;20220;-54
2021/06/17 11:51:53;;;;;;;7.43;6.80;;;;;;;33.91;30.43;101141.00;6220552;28;21213;-60
2021/06/17 11:55:14;;;;;;;6.80;6.15;;;;;;;33.71;29.93;101123.31;6229847;28;20249;-56
2021/06/17 11:58:37;;;;;;;7.13;6.35;;;;;;;33.92;29.89;101137.28;6227103;28;20261;-55
2021/06/17 12:02:09;;;;;;;7.32;6.55;;;;;;;33.52;30.51;101133.28;6230028;28;20229;-56
2021/06/17 12:05:33;;;;;;;6.47;5.97;;;;;;;33.82;30.71;101120.34;6207086;28;20220;-56
2021/06/17 12:09:05;;;;;;;9.52;7.30;;;;;;;33.96;28.81;101123.47;6344445;23;20242;-57
2021/06/17 12:12:26;;;;;;;7.40;6.80;;;;;;;34.27;29.82;101110.31;6157445;28;20229;-52
2021/06/17 12:15:47;;;;;;;7.70;7.20;;;;;;;34.42;28.95;101106.00;6149863;28;20255;-56
2021/06/17 12:19:16;;;;;;;7.43;6.80;;;;;;;34.13;28.00;101122.56;6134740;28;20530;-53
2021/06/17 12:22:38;;;;;;;7.43;6.38;;;;;;;34.09;28.68;101111.22;6165378;28;20319;-54
2021/06/17 12:26:01;;;;;;;7.43;6.82;;;;;;;33.74;28.37;101113.03;6166453;28;20329;-49
2021/06/17 12:29:26;;;;;;;6.72;6.22;;;;;;;34.45;28.11;101104.81;6169795;28;20237;-48
2021/06/17 12:32:47;;;;;;;7.47;6.97;;;;;;;34.39;27.32;101090.09;6149219;28;20229;-56
2021/06/17 12:36:17;;;;;;;8.10;7.45;;;;;;;34.70;28.28;101092.25;6165889;28;20614;-54
2021/06/17 12:39:40;;;;;;;7.00;6.45;;;;;;;35.08;27.83;101095.38;6170814;28;20553;-54
2021/06/17 12:43:16;;;;;;;7.60;7.00;;;;;;;35.29;26.84;101086.78;6166626;28;20229;-57
2021/06/17 12:46:40;;;;;;;8.23;6.25;;;;;;;34.01;28.11;101094.97;6171221;28;20242;-51
2021/06/17 12:53:53;;;;;;;7.05;6.43;;;;;;;35.28;26.59;101094.03;6096833;28;20235;-57
2021/06/17 12:57:16;;;;;;;8.00;7.25;;;;;;;35.40;26.57;101091.84;6165487;28;20234;-54
2021/06/17 13:00:37;;;;;;;6.35;5.85;;;;;;;35.60;26.40;101088.78;6163281;28;20317;-53
2021/06/17 13:04:13;;;;;;;7.22;6.72;;;;;;;35.14;26.56;101086.56;6168054;28;20581;-53
2021/06/17 13:07:36;;;;;;;8.27;7.63;;;;;;;35.13;27.24;101076.78;6165383;28;20242;-55
2021/06/17 13:10:58;;;;;;;7.28;6.78;;;;;;;33.99;27.92;101093.44;6164515;28;20352;-54
2021/06/17 13:14:19;;;;;;;7.95;7.35;;;;;;;34.17;27.33;101090.69;6167679;28;20242;-50
2021/06/17 13:17:42;;;;;;;7.28;6.68;;;;;;;34.65;26.78;101090.03;6167877;28;20340;-49
2021/06/17 13:21:12;;;;;;;7.72;6.97;;;;;;;35.10;25.67;101085.22;6168695;28;20337;-52
2021/06/17 13:24:41;;;;;;;6.75;6.15;;;;;;;36.12;24.90;101082.06;6164670;28;20221;-52
2021/06/17 13:28:05;;;;;;;6.35;5.88;;;;;;;36.64;23.52;101086.91;6163832;28;20539;-50
2021/06/17 13:31:31;;;;;;;6.85;6.32;;;;;;;37.59;22.19;101086.56;6166117;28;20242;-51
2021/06/17 13:34:53;;;;;;;5.45;4.97;;;;;;;38.59;20.72;101076.25;6162406;28;20603;-53
2021/06/17 13:38:13;;;;;;;5.40;5.00;;;;;;;36.87;20.95;101076.09;6166356;28;20237;-50
2021/06/17 13:41:37;;;;;;;6.15;5.00;;;;;;;38.49;19.35;101071.09;6168237;28;20320;-53
2021/06/17 13:45:00;;;;;;;4.60;4.20;;;;;;;37.97;19.46;101066.66;6163341;28;20230;-49
2021/06/17 13:48:21;;;;;;;5.97;5.38;;;;;;;38.38;19.04;101068.84;6162442;28;20238;-50
2021/06/17 13:51:42;;;;;;;4.80;4.40;;;;;;;36.92;19.55;101071.00;6168640;28;20234;-49
2021/06/17 13:55:07;;;;;;;5.68;5.18;;;;;;;38.12;18.36;101075.66;6170724;28;20238;-51
2021/06/17 13:58:28;;;;;;;4.70;4.30;;;;;;;36.23;19.86;101084.41;6168276;28;20649;-49
2021/06/17 14:01:50;;;;;;;4.95;4.53;;;;;;;37.46;19.39;101080.06;6169794;28;20230;-54
2021/06/17 14:05:13;;;;;;;6.53;4.35;;;;;;;37.24;19.58;101071.78;6172712;28;20237;-53
2021/06/17 14:08:34;;;;;;;6.03;4.78;;;;;;;36.45;20.34;101072.78;6169045;28;20234;-52
2021/06/17 14:11:55;;;;;;;4.72;4.35;;;;;;;36.88;19.75;101072.38;6170104;28;20237;-52
2021/06/17 14:15:17;;;;;;;5.20;4.80;;;;;;;35.92;20.21;101087.03;6166285;28;20316;-55
2021/06/17 14:18:39;;;;;;;4.65;4.35;;;;;;;35.82;20.55;101082.66;6172430;28;20229;-51
2021/06/17 14:22:00;;;;;;;5.10;4.70;;;;;;;36.49;19.78;101075.13;6170404;28;20230;-50
2021/06/17 14:25:21;;;;;;;4.63;4.22;;;;;;;35.74;20.29;101079.97;6177786;28;20248;-53
2021/06/17 14:28:42;;;;;;;4.63;4.22;;;;;;;35.95;19.70;101071.28;6161619;28;20234;-52
2021/06/17 14:32:03;;;;;;;5.03;4.50;;;;;;;36.52;19.43;101077.50;6170443;28;20319;-52
2021/06/17 14:35:25;;;;;;;4.38;3.92;;;;;;;37.36;19.10;101064.03;6168953;28;20227;-50
2021/06/17 14:38:46;;;;;;;4.78;4.47;;;;;;;36.20;19.67;101058.50;6165454;28;20229;-51
2021/06/17 14:42:08;;;;;;;4.57;4.05;;;;;;;36.46;19.04;101068.19;6168556;28;22058;-52
2021/06/17 14:45:29;;;;;;;7.80;4.50;;;;;;;36.35;19.15;101082.16;6171360;28;20238;-48
2021/06/17 14:48:50;;;;;;;5.90;3.83;;;;;;;36.51;19.17;101070.38;6160451;28;20565;-52
2021/06/17 14:52:13;;;;;;;4.72;3.45;;;;;;;36.20;19.09;101063.94;6176360;28;20257;-54
2021/06/17 14:55:34;;;;;;;4.30;3.92;;;;;;;37.13;18.70;101064.94;6185354;28;20215;-52
2021/06/17 14:58:55;;;;;;;4.28;3.97;;;;;;;37.03;18.36;101067.00;6170977;28;20631;-55
2021/06/17 15:02:17;;;;;;;4.65;4.25;;;;;;;37.28;18.16;101062.22;6175815;28;20615;-50
2021/06/17 15:05:38;;;;;;;4.05;3.75;;;;;;;37.18;18.79;101064.38;6173732;28;20234;-50
2021/06/17 15:09:01;;;;;;;3.40;3.15;;;;;;;37.28;18.78;101062.22;6173670;28;20267;-47
2021/06/17 15:12:22;;;;;;;3.92;3.63;;;;;;;36.76;18.91;101057.53;6181296;28;20926;-48
2021/06/17 15:15:43;;;;;;;3.85;3.30;;;;;;;36.64;18.54;101066.09;6175296;28;20242;-51
2021/06/17 15:19:06;;;;;;;3.78;3.47;;;;;;;36.85;18.13;101062.72;6176474;28;20616;-52
2021/06/17 15:22:27;;;;;;;3.42;3.13;;;;;;;36.71;18.24;101059.97;6172942;28;20241;-52
2021/06/17 15:25:49;;;;;;;3.55;3.25;;;;;;;36.93;17.47;101064.53;6177290;28;20627;-50
2021/06/17 15:29:10;;;;;;;4.47;3.05;;;;;;;37.23;16.66;101067.38;6181447;28;20237;-51
2021/06/17 15:32:31;;;;;;;3.95;2.83;;;;;;;36.41;17.11;101067.88;6172527;28;20641;-50
2021/06/17 15:35:52;;;;;;;4.82;3.22;;;;;;;36.89;16.77;101063.19;6168250;28;20238;-52
2021/06/17 15:39:13;;;;;;;3.42;3.15;;;;;;;36.04;16.86;101056.69;6172789;28;20230;-55
2021/06/17 15:42:35;;;;;;;3.55;3.25;;;;;;;36.12;17.06;101063.06;6171651;28;20284;-53
2021/06/17 15:45:59;;;;;;;3.22;2.75;;;;;;;36.44;16.90;101064.81;6165366;28;20238;-52
2021/06/17 15:49:20;;;;;;;3.70;3.40;;;;;;;36.68;17.14;101060.31;6175011;28;20258;-50